createdAt,value
2018-07-10T00:02:35.275Z,99.90
2018-07-10T00:07:18.355Z,99.90
2018-07-10T00:10:02.673Z,99.90
2018-07-10T00:12:31.174Z,99.90
2018-07-10T00:14:59.611Z,99.90
2018-07-10T00:17:28.057Z,99.90
2018-07-10T00:19:56.573Z,99.90
2018-07-10T00:22:25.054Z,99.90
2018-07-10T00:24:53.554Z,99.90
2018-07-10T00:27:22.016Z,99.90
2018-07-10T00:29:50.485Z,99.90
2018-07-10T00:37:15.300Z,99.90
2018-07-10T00:39:43.808Z,99.90
2018-07-10T00:42:12.265Z,99.90
2018-07-10T00:44:40.746Z,99.90
2018-07-10T00:49:37.445Z,99.90
2018-07-10T00:52:05.928Z,99.90
2018-07-10T00:54:34.436Z,99.90
2018-07-10T00:57:02.985Z,99.90
2018-07-10T00:59:31.614Z,99.90
2018-07-10T01:02:00.129Z,99.90
2018-07-10T01:04:28.638Z,99.90
2018-07-10T01:06:57.113Z,99.90
2018-07-10T01:09:25.626Z,99.90
2018-07-10T01:11:54.124Z,99.90
2018-07-10T01:14:22.618Z,99.90
2018-07-10T01:16:51.093Z,99.90
2018-07-10T01:19:19.555Z,99.90
2018-07-10T01:21:48.729Z,99.90
2018-07-10T01:24:18.492Z,99.90
2018-07-10T01:26:48.662Z,99.90
2018-07-10T01:29:22.581Z,99.90
2018-07-10T01:31:52.842Z,99.90
2018-07-10T01:34:21.940Z,99.90
2018-07-10T01:36:50.665Z,99.90
2018-07-10T01:39:19.166Z,99.90
2018-07-10T01:41:47.718Z,99.90
2018-07-10T01:44:16.213Z,99.90
2018-07-10T01:46:45.031Z,99.90
2018-07-10T01:51:41.664Z,99.90
2018-07-10T01:54:10.179Z,99.90
2018-07-10T01:56:38.768Z,99.90
2018-07-10T01:59:07.328Z,99.90
2018-07-10T02:01:35.902Z,99.90
2018-07-10T02:04:04.827Z,99.90
2018-07-10T02:06:33.362Z,99.90
2018-07-10T02:09:01.882Z,99.90
2018-07-10T02:11:30.388Z,99.90
2018-07-10T02:13:58.962Z,99.90
2018-07-10T02:16:27.479Z,99.90
2018-07-10T02:18:56.447Z,99.90
2018-07-10T02:21:25.058Z,99.90
2018-07-10T02:23:54.077Z,99.90
2018-07-10T02:26:24.035Z,99.90
2018-07-10T02:28:53.330Z,99.90
2018-07-10T02:31:21.806Z,99.90
2018-07-10T02:33:51.098Z,99.90
2018-07-10T02:36:20.388Z,99.90
2018-07-10T02:41:19.717Z,99.90
2018-07-10T02:44:00.501Z,99.90
2018-07-10T02:46:30.190Z,99.90
2018-07-10T02:49:19.755Z,99.90
2018-07-10T02:51:55.187Z,99.90
2018-07-10T02:54:26.209Z,99.90
2018-07-10T02:56:56.241Z,99.90
2018-07-10T02:59:31.689Z,99.90
2018-07-10T03:02:00.219Z,99.90
2018-07-10T03:04:28.846Z,99.90
2018-07-10T03:06:57.498Z,99.90
2018-07-10T03:09:26.013Z,99.90
2018-07-10T03:11:54.537Z,99.90
2018-07-10T03:14:23.374Z,99.90
2018-07-10T03:16:51.858Z,99.90
2018-07-10T03:19:21.798Z,99.90
2018-07-10T03:21:50.327Z,99.90
2018-07-10T03:24:18.806Z,99.90
2018-07-10T03:26:47.342Z,99.90
2018-07-10T03:31:43.999Z,99.90
2018-07-10T03:34:12.496Z,99.90
2018-07-10T03:36:41.002Z,99.90
2018-07-10T03:39:09.518Z,99.90
2018-07-10T03:41:38.046Z,99.90
2018-07-10T03:44:06.751Z,99.90
2018-07-10T03:46:35.409Z,99.90
2018-07-10T03:49:04.312Z,99.90
2018-07-10T03:51:32.858Z,99.90
2018-07-10T03:56:29.519Z,99.90
2018-07-10T04:01:32.990Z,99.90
2018-07-10T04:04:01.573Z,99.90
2018-07-10T04:06:30.083Z,99.90
2018-07-10T04:08:59.724Z,99.90
2018-07-10T04:11:28.257Z,99.90
2018-07-10T04:13:56.846Z,99.90
2018-07-10T04:16:25.385Z,99.90
2018-07-10T04:18:53.923Z,99.90
2018-07-10T04:24:03.554Z,99.90
2018-07-10T04:26:34.762Z,99.90
2018-07-10T04:29:09.469Z,99.90
2018-07-10T04:31:44.492Z,99.90
2018-07-10T04:34:13.009Z,99.90
2018-07-10T04:36:41.527Z,99.90
2018-07-10T04:39:10.077Z,99.90
2018-07-10T04:41:41.874Z,99.90
2018-07-10T04:44:13.417Z,99.90
2018-07-10T04:46:49.806Z,99.90
2018-07-10T04:52:29.699Z,99.90
2018-07-10T04:55:09.133Z,99.90
2018-07-10T04:58:42.116Z,99.90
2018-07-10T05:01:10.620Z,99.90
2018-07-10T05:03:39.166Z,99.90
2018-07-10T05:06:08.257Z,99.90
2018-07-10T05:08:36.833Z,99.90
2018-07-10T05:11:05.366Z,99.90
2018-07-10T05:13:33.918Z,99.90
2018-07-10T05:16:04.365Z,99.90
2018-07-10T05:18:33.765Z,99.90
2018-07-10T05:21:07.230Z,99.90
2018-07-10T05:26:03.982Z,99.90
2018-07-10T05:28:32.507Z,99.90
2018-07-10T05:31:01.891Z,99.90
2018-07-10T05:33:30.558Z,99.90
2018-07-10T05:38:38.878Z,99.90
2018-07-10T05:41:07.997Z,99.90
2018-07-10T05:43:46.801Z,99.90
2018-07-10T05:49:02.094Z,99.90
2018-07-10T05:51:34.221Z,99.90
2018-07-10T05:54:05.406Z,99.90
2018-07-10T05:59:03.489Z,99.90
2018-07-10T06:01:32.211Z,99.90
2018-07-10T06:04:00.714Z,99.90
2018-07-10T06:06:29.227Z,99.90
2018-07-10T06:08:58.030Z,99.90
2018-07-10T06:11:26.614Z,99.90
2018-07-10T06:13:55.677Z,99.90
2018-07-10T06:16:24.187Z,99.90
2018-07-10T06:21:22.512Z,99.90
2018-07-10T06:23:52.123Z,99.90
2018-07-10T06:26:20.604Z,99.90
2018-07-10T06:28:56.841Z,99.90
2018-07-10T06:31:26.219Z,99.90
2018-07-10T06:34:03.722Z,99.90
2018-07-10T06:36:36.239Z,99.90
2018-07-10T06:39:14.533Z,99.90
2018-07-10T06:41:52.262Z,99.90
2018-07-10T06:44:21.434Z,99.90
2018-07-10T06:46:54.187Z,99.90
2018-07-10T06:49:30.184Z,99.90
2018-07-10T06:52:18.777Z,99.90
2018-07-10T06:54:54.537Z,99.90
2018-07-10T06:59:54.318Z,99.90
2018-07-10T07:02:22.880Z,99.90
2018-07-10T07:04:51.393Z,99.90
2018-07-10T07:07:19.914Z,99.90
2018-07-10T07:12:16.566Z,99.90
2018-07-10T07:17:13.382Z,99.90
2018-07-10T07:19:42.114Z,99.90
2018-07-10T07:22:10.650Z,99.90
2018-07-10T07:24:39.159Z,99.90
2018-07-10T07:29:35.839Z,99.90
2018-07-10T07:32:04.508Z,99.90
2018-07-10T07:34:34.469Z,99.90
2018-07-10T07:37:02.951Z,99.90
2018-07-10T07:39:33.400Z,99.90
2018-07-10T07:44:30.129Z,99.90
2018-07-10T07:46:58.646Z,99.90
2018-07-10T07:49:28.681Z,99.90
2018-07-10T07:54:25.402Z,99.90
2018-07-10T07:56:53.911Z,99.90
2018-07-10T07:59:22.391Z,99.90
2018-07-10T08:01:52.083Z,99.90
2018-07-10T08:04:20.678Z,99.90
2018-07-10T08:06:49.161Z,99.90
2018-07-10T08:09:17.706Z,99.90
2018-07-10T08:11:46.231Z,99.90
2018-07-10T08:16:45.326Z,99.90
2018-07-10T08:19:15.028Z,99.90
2018-07-10T08:21:46.603Z,99.90
2018-07-10T08:26:44.703Z,99.90
2018-07-10T08:31:41.792Z,99.90
2018-07-10T08:34:10.429Z,99.90
2018-07-10T08:36:38.965Z,99.90
2018-07-10T08:39:07.598Z,99.90
2018-07-10T08:41:43.270Z,99.90
2018-07-10T08:44:12.154Z,99.90
2018-07-10T08:49:09.707Z,99.90
2018-07-10T08:51:38.503Z,99.90
2018-07-10T08:54:06.985Z,99.90
2018-07-10T08:56:35.510Z,99.90
2018-07-10T08:59:04.039Z,99.90
2018-07-10T09:01:33.122Z,99.90
2018-07-10T09:04:01.629Z,98.20
2018-07-10T09:08:58.293Z,94.60
2018-07-10T09:11:26.805Z,96.90
2018-07-10T09:13:55.331Z,97.50
2018-07-10T09:16:23.814Z,96.70
2018-07-10T09:18:52.330Z,98.20
2018-07-10T09:21:20.872Z,97.30
2018-07-10T09:23:49.388Z,96.90
2018-07-10T09:26:17.906Z,96.10
2018-07-10T09:28:46.450Z,96.00
2018-07-10T09:31:14.966Z,97.00
2018-07-10T09:33:43.472Z,97.50
2018-07-10T09:36:11.989Z,98.50
2018-07-10T09:38:40.577Z,98.80
2018-07-10T09:41:09.253Z,99.30
2018-07-10T09:46:06.698Z,99.90
2018-07-10T09:48:35.249Z,99.50
2018-07-10T09:51:03.734Z,98.70
2018-07-10T09:53:32.243Z,98.80
2018-07-10T09:56:00.711Z,99.90
2018-07-10T09:58:29.251Z,98.20
2018-07-10T10:01:04.498Z,98.20
2018-07-10T10:03:33.033Z,98.60
2018-07-10T10:06:01.541Z,99.20
2018-07-10T10:08:30.128Z,96.40
2018-07-10T10:10:58.564Z,96.60
2018-07-10T10:13:27.062Z,97.60
2018-07-10T10:18:23.718Z,96.40
2018-07-10T10:23:20.622Z,96.30
2018-07-10T10:25:50.111Z,97.60
2018-07-10T10:28:21.508Z,96.50
2018-07-10T10:30:50.010Z,95.80
2018-07-10T10:35:46.668Z,97.30
2018-07-10T10:38:15.531Z,97.00
2018-07-10T10:40:45.081Z,97.30
2018-07-10T10:43:13.589Z,97.60
2018-07-10T10:45:43.034Z,97.20
2018-07-10T10:48:14.069Z,96.70
2018-07-10T10:50:48.526Z,97.10
2018-07-10T10:53:18.093Z,96.20
2018-07-10T10:55:46.627Z,96.60
2018-07-10T10:58:15.201Z,95.00
2018-07-10T11:00:43.923Z,95.10
2018-07-10T11:03:12.456Z,94.70
2018-07-10T11:05:41.220Z,94.60
2018-07-10T11:08:09.740Z,95.10
2018-07-10T11:10:38.242Z,91.30
2018-07-10T11:13:06.839Z,91.70
2018-07-10T11:15:40.746Z,84.00
2018-07-10T11:18:11.125Z,86.40
2018-07-10T11:20:52.681Z,83.20
2018-07-10T11:23:37.215Z,71.60
2018-07-10T11:26:08.898Z,76.60
2018-07-10T11:28:37.437Z,81.50
2018-07-10T11:31:05.918Z,86.70
2018-07-10T11:33:34.455Z,80.60
2018-07-10T11:38:31.126Z,83.40
2018-07-10T11:40:59.636Z,81.10
2018-07-10T11:43:28.171Z,80.70
2018-07-10T11:45:56.702Z,83.00
2018-07-10T11:48:25.254Z,84.30
2018-07-10T11:50:53.746Z,83.00
2018-07-10T11:53:22.306Z,83.60
2018-07-10T11:55:50.806Z,78.30
2018-07-10T11:58:19.281Z,71.90
2018-07-10T12:00:47.818Z,69.10
2018-07-10T12:03:16.322Z,68.90
2018-07-10T12:05:44.833Z,64.30
2018-07-10T12:08:13.314Z,67.40
2018-07-10T12:10:41.841Z,71.20
2018-07-10T12:13:10.322Z,67.50
2018-07-10T12:15:38.863Z,72.50
2018-07-10T12:18:07.353Z,75.30
2018-07-10T12:20:41.454Z,79.20
2018-07-10T12:23:10.702Z,76.70
2018-07-10T12:25:44.895Z,75.40
2018-07-10T12:28:14.366Z,74.90
2018-07-10T12:30:42.912Z,72.50
2018-07-10T12:35:39.654Z,74.30
2018-07-10T12:38:08.109Z,75.90
2018-07-10T12:40:36.692Z,77.90
2018-07-10T12:43:05.205Z,76.00
2018-07-10T12:45:33.719Z,76.00
2018-07-10T12:48:02.228Z,77.70
2018-07-10T12:50:30.721Z,76.70
2018-07-10T12:52:59.225Z,75.10
2018-07-10T12:55:27.857Z,78.20
2018-07-10T12:57:57.149Z,77.30
2018-07-10T13:00:28.782Z,76.00
2018-07-10T13:02:57.633Z,73.00
2018-07-10T13:05:28.743Z,73.20
2018-07-10T13:07:57.282Z,76.10
2018-07-10T13:10:25.713Z,74.30
2018-07-10T13:12:54.230Z,78.00
2018-07-10T13:15:22.747Z,86.80
2018-07-10T13:17:51.648Z,79.30
2018-07-10T13:20:20.403Z,80.60
2018-07-10T13:22:49.180Z,77.60
2018-07-10T13:25:17.688Z,79.80
2018-07-10T13:27:46.666Z,79.80
2018-07-10T13:30:15.186Z,77.20
2018-07-10T13:32:43.720Z,80.20
2018-07-10T13:35:12.245Z,80.00
2018-07-10T13:37:43.754Z,76.60
2018-07-10T13:40:12.243Z,78.00
2018-07-10T13:45:25.097Z,82.60
2018-07-10T13:47:53.612Z,82.00
2018-07-10T13:50:25.024Z,78.80
2018-07-10T13:52:54.804Z,80.20
2018-07-10T13:55:23.394Z,83.60
2018-07-10T13:58:03.880Z,80.40
2018-07-10T14:00:33.195Z,82.60
2018-07-10T14:03:01.693Z,75.70
2018-07-10T14:05:30.202Z,72.30
2018-07-10T14:07:58.678Z,77.10
2018-07-10T14:10:27.279Z,73.40
2018-07-10T14:12:55.773Z,77.00
2018-07-10T14:17:53.632Z,79.00
2018-07-10T14:20:22.149Z,77.20
2018-07-10T14:22:50.670Z,80.90
2018-07-10T14:25:19.182Z,81.80
2018-07-10T14:27:47.712Z,80.40
2018-07-10T14:30:16.210Z,77.50
2018-07-10T14:32:44.705Z,71.40
2018-07-10T14:35:13.251Z,57.50
2018-07-10T14:37:41.767Z,57.70
2018-07-10T14:40:10.297Z,56.70
2018-07-10T14:45:07.465Z,51.00
2018-07-10T14:47:37.291Z,50.40
2018-07-10T14:50:05.802Z,53.50
2018-07-10T14:52:34.341Z,58.00
2018-07-10T14:55:02.845Z,60.80
2018-07-10T14:57:31.362Z,56.60
2018-07-10T15:00:00.051Z,52.00
2018-07-10T15:02:28.546Z,49.60
2018-07-10T15:04:57.006Z,50.60
2018-07-10T15:07:25.478Z,48.00
2018-07-10T15:09:53.947Z,53.00
2018-07-10T15:12:22.442Z,53.90
2018-07-10T15:14:51.159Z,55.20
2018-07-10T15:17:24.885Z,58.10
2018-07-10T15:19:53.408Z,57.50
2018-07-10T15:22:21.914Z,63.10
2018-07-10T15:24:50.422Z,67.00
2018-07-10T15:27:18.957Z,66.90
2018-07-10T15:29:47.442Z,70.60
2018-07-10T15:32:15.991Z,75.50
2018-07-10T15:34:44.529Z,77.20
2018-07-10T15:39:41.190Z,75.30
2018-07-10T15:42:09.747Z,78.10
2018-07-10T15:44:38.229Z,79.00
2018-07-10T15:47:06.813Z,79.20
2018-07-10T15:49:35.298Z,83.00
2018-07-10T15:52:03.842Z,81.20
2018-07-10T15:54:32.318Z,85.30
2018-07-10T15:57:00.803Z,83.50
2018-07-10T15:59:29.258Z,84.10
2018-07-10T16:01:57.761Z,83.50
2018-07-10T16:04:26.311Z,84.40
2018-07-10T16:06:55.070Z,85.50
2018-07-10T16:09:23.748Z,87.40
2018-07-10T16:11:57.184Z,89.20
2018-07-10T16:14:26.874Z,88.80
2018-07-10T16:19:35.326Z,86.30
2018-07-10T16:22:10.766Z,82.90
2018-07-10T16:24:46.002Z,83.90
2018-07-10T16:27:17.618Z,83.50
2018-07-10T16:29:46.169Z,84.00
2018-07-10T16:32:15.010Z,82.60
2018-07-10T16:34:43.565Z,85.60
2018-07-10T16:37:12.155Z,86.70
2018-07-10T16:39:40.709Z,88.90
2018-07-10T16:42:14.558Z,88.90
2018-07-10T16:44:43.644Z,90.60
2018-07-10T16:47:18.645Z,91.70
2018-07-10T16:49:47.181Z,90.80
2018-07-10T16:52:27.422Z,92.00
2018-07-10T16:54:55.990Z,92.80
2018-07-10T16:57:24.496Z,92.30
2018-07-10T16:59:53.001Z,93.30
2018-07-10T17:02:21.539Z,94.70
2018-07-10T17:04:50.048Z,94.70
2018-07-10T17:07:18.590Z,94.90
2018-07-10T17:09:47.077Z,94.60
2018-07-10T17:12:15.578Z,93.90
2018-07-10T17:17:19.482Z,95.40
2018-07-10T17:19:48.008Z,95.30
2018-07-10T17:22:16.546Z,95.30
2018-07-10T17:24:45.060Z,95.40
2018-07-10T17:27:13.598Z,96.10
2018-07-10T17:29:42.090Z,96.40
2018-07-10T17:32:10.615Z,96.30
2018-07-10T17:34:39.117Z,96.40
2018-07-10T17:37:07.678Z,95.90
2018-07-10T17:39:36.208Z,96.40
2018-07-10T17:42:04.747Z,96.10
2018-07-10T17:44:33.246Z,96.90
2018-07-10T17:47:01.804Z,97.00
2018-07-10T17:49:30.306Z,97.70
2018-07-10T17:51:58.820Z,97.80
2018-07-10T17:54:27.383Z,98.00
2018-07-10T17:56:55.897Z,98.20
2018-07-10T18:01:52.586Z,99.10
2018-07-10T18:04:21.041Z,99.20
2018-07-10T18:09:17.686Z,99.30
2018-07-10T18:11:46.202Z,99.80
2018-07-10T18:14:14.726Z,99.50
2018-07-10T18:16:43.230Z,99.60
2018-07-10T18:19:11.775Z,99.90
2018-07-10T18:21:40.314Z,99.90
2018-07-10T18:24:08.846Z,99.90
2018-07-10T18:26:37.333Z,99.90
2018-07-10T18:29:05.894Z,99.90
2018-07-10T18:31:34.417Z,99.90
2018-07-10T18:34:02.974Z,99.90
2018-07-10T18:36:31.488Z,99.90
2018-07-10T18:39:00.043Z,99.90
2018-07-10T18:41:28.527Z,99.90
2018-07-10T18:43:57.041Z,99.90
2018-07-10T18:51:28.738Z,99.90
2018-07-10T18:53:57.263Z,99.90
2018-07-10T18:56:25.825Z,99.90
2018-07-10T18:59:05.205Z,99.90
2018-07-10T19:01:48.655Z,99.90
2018-07-10T19:06:45.309Z,99.90
2018-07-10T19:12:02.218Z,99.90
2018-07-10T19:14:30.766Z,99.90
2018-07-10T19:16:59.282Z,99.90
2018-07-10T19:19:27.935Z,99.90
2018-07-10T19:22:02.086Z,99.90
2018-07-10T19:24:30.741Z,99.90
2018-07-10T19:27:00.063Z,99.90
2018-07-10T19:29:46.511Z,99.90
2018-07-10T19:32:15.205Z,99.90
2018-07-10T19:34:43.890Z,99.90
2018-07-10T19:37:12.357Z,99.90
2018-07-10T19:39:40.862Z,99.90
2018-07-10T19:42:09.389Z,99.90
2018-07-10T19:47:06.202Z,99.90
2018-07-10T19:49:36.955Z,99.90
2018-07-10T19:54:33.674Z,99.90
2018-07-10T19:57:04.416Z,99.90
2018-07-10T19:59:33.002Z,99.90
2018-07-10T20:02:02.829Z,99.90
2018-07-10T20:05:11.733Z,99.90
2018-07-10T20:07:43.965Z,99.90
2018-07-10T20:12:51.072Z,99.90
2018-07-10T20:16:30.946Z,99.90
2018-07-10T20:19:10.559Z,99.90
2018-07-10T20:24:16.850Z,99.90
2018-07-10T20:28:57.938Z,99.90
2018-07-10T20:32:37.508Z,99.90
2018-07-10T20:35:15.386Z,99.90
2018-07-10T20:37:44.607Z,99.90
2018-07-10T20:40:15.898Z,99.90
2018-07-10T20:42:44.809Z,99.90
2018-07-10T20:45:13.238Z,99.90
2018-07-10T20:47:50.177Z,99.90
2018-07-10T20:52:59.434Z,99.90
2018-07-10T20:55:33.860Z,99.90
2018-07-10T20:58:06.878Z,99.90
2018-07-10T21:00:38.084Z,99.90
2018-07-10T21:03:17.993Z,99.90
2018-07-10T21:05:47.973Z,99.90
2018-07-10T21:08:21.416Z,99.90
2018-07-10T21:10:52.725Z,99.90
2018-07-10T21:13:32.061Z,99.90
2018-07-10T21:16:11.195Z,99.90
2018-07-10T21:18:47.978Z,99.90
2018-07-10T21:23:32.637Z,99.90
2018-07-10T21:27:09.182Z,99.90
2018-07-10T21:30:44.226Z,99.90
2018-07-10T21:34:20.999Z,99.90
2018-07-10T21:40:04.264Z,99.90
2018-07-10T21:43:46.269Z,99.90
2018-07-10T21:46:21.837Z,99.90
2018-07-10T21:49:30.137Z,99.90
2018-07-10T21:51:58.677Z,99.90
2018-07-10T21:54:27.199Z,99.90
2018-07-10T21:56:55.757Z,99.90
2018-07-10T21:59:24.834Z,99.90
2018-07-10T22:02:11.862Z,99.90
2018-07-10T22:04:40.759Z,99.90
2018-07-10T22:07:12.910Z,99.90
2018-07-10T22:12:13.299Z,99.90
2018-07-10T22:14:41.948Z,99.90
2018-07-10T22:17:17.383Z,99.90
2018-07-10T22:19:47.096Z,99.90
2018-07-10T22:22:25.009Z,99.90
2018-07-10T22:24:54.588Z,99.90
2018-07-10T22:27:24.010Z,99.90
2018-07-10T22:30:03.726Z,99.90
2018-07-10T22:32:41.137Z,99.90
2018-07-10T22:37:37.868Z,99.90
2018-07-10T22:40:07.302Z,99.90
2018-07-10T22:45:03.994Z,99.90
2018-07-10T22:47:36.336Z,99.90
2018-07-10T22:50:14.642Z,99.90
2018-07-10T22:52:47.733Z,99.90
2018-07-10T22:55:19.491Z,99.90
2018-07-10T22:57:48.081Z,99.90
2018-07-10T23:00:21.166Z,99.90
2018-07-10T23:02:49.673Z,99.90
2018-07-10T23:05:18.227Z,99.90
2018-07-10T23:07:46.744Z,99.90
2018-07-10T23:10:15.258Z,99.90
2018-07-10T23:12:43.831Z,99.90
2018-07-10T23:15:12.331Z,99.90
2018-07-10T23:17:40.879Z,99.90
2018-07-10T23:20:09.391Z,99.90
2018-07-10T23:22:49.194Z,99.90
2018-07-10T23:25:17.707Z,99.90
2018-07-10T23:27:46.220Z,99.90
2018-07-10T23:32:43.369Z,99.90
2018-07-10T23:37:44.619Z,99.90
2018-07-10T23:40:13.169Z,99.90
2018-07-10T23:42:41.683Z,99.90
2018-07-10T23:45:13.729Z,99.90
2018-07-10T23:47:42.537Z,99.90
2018-07-10T23:50:18.000Z,99.90
2018-07-10T23:53:29.293Z,99.90
2018-07-10T23:55:57.822Z,99.90
2018-07-10T23:58:26.278Z,99.90
